createdAt,value
2022-12-04T00:00:04.862Z,3.28
2022-12-04T00:01:04.840Z,3.33
2022-12-04T00:02:04.825Z,3.25
2022-12-04T00:03:04.881Z,3.26
2022-12-04T00:04:04.788Z,3.28
2022-12-04T00:05:04.898Z,3.23
2022-12-04T00:06:04.756Z,3.17
2022-12-04T00:07:04.730Z,3.26
2022-12-04T00:08:04.825Z,3.30
2022-12-04T00:09:04.695Z,3.33
2022-12-04T00:10:04.678Z,3.39
2022-12-04T00:11:04.656Z,3.23
2022-12-04T00:12:04.640Z,3.22
2022-12-04T00:13:04.619Z,3.34
2022-12-04T00:14:07.245Z,3.39
2022-12-04T00:16:04.722Z,3.35
2022-12-04T00:17:04.546Z,3.23
2022-12-04T00:18:04.532Z,3.34
2022-12-04T00:19:04.513Z,3.34
2022-12-04T00:20:04.495Z,3.25
2022-12-04T00:21:04.490Z,3.33
2022-12-04T00:22:04.458Z,3.34
2022-12-04T00:23:04.437Z,3.31
2022-12-04T00:24:04.421Z,3.37
2022-12-04T00:25:04.399Z,3.31
2022-12-04T00:26:04.389Z,3.33
2022-12-04T00:27:04.367Z,3.25
2022-12-04T00:28:04.348Z,3.34
2022-12-04T00:29:04.325Z,3.35
2022-12-04T00:30:04.311Z,3.25
2022-12-04T00:31:04.365Z,3.42
2022-12-04T00:32:04.327Z,3.35
2022-12-04T00:33:04.252Z,3.41
2022-12-04T00:34:08.001Z,3.42
2022-12-04T00:35:04.215Z,3.35
2022-12-04T00:36:04.204Z,3.41
2022-12-04T00:37:04.199Z,3.35
2022-12-04T00:38:04.165Z,3.33
2022-12-04T00:39:04.143Z,3.44
2022-12-04T00:40:04.128Z,3.42
2022-12-04T00:41:04.109Z,3.45
2022-12-04T00:42:04.091Z,3.35
2022-12-04T00:43:04.069Z,3.46
2022-12-04T00:44:04.055Z,3.37
2022-12-04T00:45:04.034Z,3.44
2022-12-04T00:46:04.077Z,3.44
2022-12-04T00:47:03.997Z,3.46
2022-12-04T00:48:03.981Z,3.49
2022-12-04T00:49:03.959Z,3.45
2022-12-04T00:50:03.945Z,3.49
2022-12-04T00:51:03.929Z,3.45
2022-12-04T00:52:03.908Z,3.44
2022-12-04T00:53:03.907Z,3.42
2022-12-04T00:54:03.871Z,3.42
2022-12-04T00:55:03.850Z,3.39
2022-12-04T00:56:03.835Z,3.39
2022-12-04T00:57:03.914Z,3.41
2022-12-04T00:58:03.801Z,3.52
2022-12-04T00:59:03.779Z,3.45
2022-12-04T01:00:03.762Z,3.49
2022-12-04T01:01:03.914Z,3.44
2022-12-04T01:02:03.727Z,3.52
2022-12-04T01:03:03.744Z,3.52
2022-12-04T01:04:03.688Z,3.39
2022-12-04T01:05:03.668Z,3.45
2022-12-04T01:06:03.655Z,3.50
2022-12-04T01:07:05.403Z,3.53
2022-12-04T01:08:03.744Z,3.42
2022-12-04T01:09:03.596Z,3.49
2022-12-04T01:10:03.580Z,3.53
2022-12-04T01:11:03.565Z,3.49
2022-12-04T01:12:03.566Z,3.49
2022-12-04T01:13:03.542Z,3.56
2022-12-04T01:14:03.519Z,3.68
2022-12-04T01:15:03.508Z,3.63
2022-12-04T01:16:03.571Z,3.54
2022-12-04T01:17:03.453Z,3.71
2022-12-04T01:18:03.436Z,3.70
2022-12-04T01:19:03.416Z,3.71
2022-12-04T01:20:03.398Z,3.68
2022-12-04T01:21:03.377Z,3.64
2022-12-04T01:22:03.362Z,3.67
2022-12-04T01:23:03.340Z,3.64
2022-12-04T01:24:03.327Z,3.72
2022-12-04T01:25:03.308Z,3.68
2022-12-04T01:26:03.290Z,3.68
2022-12-04T01:27:03.270Z,3.68
2022-12-04T01:28:03.255Z,3.59
2022-12-04T01:29:03.255Z,3.64
2022-12-04T01:30:03.219Z,3.64
2022-12-04T01:31:03.195Z,3.78
2022-12-04T01:32:03.263Z,3.77
2022-12-04T01:33:03.160Z,3.59
2022-12-04T01:35:03.128Z,3.71
2022-12-04T01:36:03.106Z,3.74
2022-12-04T01:37:03.091Z,3.71
2022-12-04T01:38:03.069Z,3.71
2022-12-04T01:39:03.057Z,3.75
2022-12-04T01:40:03.035Z,3.72
2022-12-04T01:41:03.021Z,3.68
2022-12-04T01:42:03.001Z,3.70
2022-12-04T01:43:02.982Z,3.71
2022-12-04T01:44:02.960Z,3.71
2022-12-04T01:45:02.972Z,3.74
2022-12-04T01:46:02.980Z,3.72
2022-12-04T01:47:02.911Z,3.70
2022-12-04T01:48:02.887Z,3.74
2022-12-04T01:49:02.877Z,3.75
2022-12-04T01:50:02.853Z,3.80
2022-12-04T01:51:02.838Z,3.77
2022-12-04T01:52:02.817Z,3.81
2022-12-04T01:53:02.802Z,3.81
2022-12-04T01:54:02.781Z,3.77
2022-12-04T01:55:02.768Z,3.77
2022-12-04T01:56:02.744Z,3.74
2022-12-04T01:57:02.731Z,3.74
2022-12-04T01:58:02.719Z,3.75
2022-12-04T01:59:02.694Z,3.74
2022-12-04T02:00:02.671Z,3.71
2022-12-04T02:01:08.264Z,3.71
2022-12-04T02:02:02.801Z,3.75
2022-12-04T02:03:02.732Z,3.71
2022-12-04T02:04:02.600Z,3.74
2022-12-04T02:05:02.586Z,3.75
2022-12-04T02:06:02.667Z,3.71
2022-12-04T02:07:02.552Z,3.80
2022-12-04T02:08:02.591Z,3.74
2022-12-04T02:09:02.517Z,3.82
2022-12-04T02:10:02.493Z,3.86
2022-12-04T02:11:02.480Z,3.90
2022-12-04T02:12:02.456Z,4.00
2022-12-04T02:13:02.442Z,3.95
2022-12-04T02:14:02.421Z,3.96
2022-12-04T02:15:02.407Z,3.99
2022-12-04T02:16:02.384Z,3.93
2022-12-04T02:17:02.460Z,3.86
2022-12-04T02:18:02.349Z,3.90
2022-12-04T02:19:02.335Z,3.82
2022-12-04T02:20:02.312Z,3.78
2022-12-04T02:21:02.299Z,3.77
2022-12-04T02:22:02.277Z,3.70
2022-12-04T02:23:02.262Z,3.70
2022-12-04T02:24:02.249Z,3.77
2022-12-04T02:25:02.227Z,3.74
2022-12-04T02:26:02.205Z,3.75
2022-12-04T02:27:02.211Z,3.77
2022-12-04T02:28:02.168Z,3.72
2022-12-04T02:29:02.254Z,3.72
2022-12-04T02:30:02.132Z,3.74
2022-12-04T02:31:02.219Z,3.71
2022-12-04T02:32:02.096Z,3.80
2022-12-04T02:33:02.149Z,3.77
2022-12-04T02:34:02.064Z,3.74
2022-12-04T02:35:02.046Z,3.80
2022-12-04T02:36:02.124Z,3.75
2022-12-04T02:37:02.010Z,3.80
2022-12-04T02:38:01.998Z,3.80
2022-12-04T02:39:01.977Z,3.81
2022-12-04T02:40:01.952Z,3.72
2022-12-04T02:41:01.938Z,3.77
2022-12-04T02:42:01.918Z,3.72
2022-12-04T02:43:01.903Z,3.74
2022-12-04T02:44:01.881Z,3.68
2022-12-04T02:45:01.868Z,3.67
2022-12-04T02:46:01.935Z,3.70
2022-12-04T02:47:01.832Z,3.57
2022-12-04T02:48:01.808Z,3.54
2022-12-04T02:49:01.816Z,3.56
2022-12-04T02:50:01.774Z,3.59
2022-12-04T02:51:01.774Z,3.54
2022-12-04T02:52:01.736Z,3.53
2022-12-04T02:53:01.722Z,3.49
2022-12-04T02:54:01.701Z,3.62
2022-12-04T02:55:06.759Z,3.67
2022-12-04T02:56:01.663Z,3.68
2022-12-04T02:57:01.655Z,3.72
2022-12-04T02:58:01.641Z,3.60
2022-12-04T02:59:01.613Z,3.57
2022-12-04T03:00:01.592Z,3.57
2022-12-04T03:01:01.647Z,3.57
2022-12-04T03:02:01.606Z,3.70
2022-12-04T03:03:01.599Z,3.64
2022-12-04T03:04:01.522Z,3.62
2022-12-04T03:05:01.527Z,3.68
2022-12-04T03:06:01.490Z,3.71
2022-12-04T03:07:01.469Z,3.71
2022-12-04T03:08:01.532Z,3.72
2022-12-04T03:09:01.432Z,3.71
2022-12-04T03:10:01.413Z,3.64
2022-12-04T03:11:01.395Z,3.68
2022-12-04T03:12:01.374Z,3.62
2022-12-04T03:13:01.359Z,3.60
2022-12-04T03:14:01.339Z,3.57
2022-12-04T03:15:01.324Z,3.57
2022-12-04T03:16:01.302Z,3.46
2022-12-04T03:17:01.304Z,3.57
2022-12-04T03:18:01.265Z,3.57
2022-12-04T03:19:01.256Z,3.52
2022-12-04T03:20:01.230Z,3.45
2022-12-04T03:21:01.236Z,3.44
2022-12-04T03:22:01.193Z,3.49
2022-12-04T03:23:01.180Z,3.52
2022-12-04T03:24:01.158Z,3.46
2022-12-04T03:25:01.191Z,3.39
2022-12-04T03:26:01.121Z,3.42
2022-12-04T03:27:01.107Z,3.41
2022-12-04T03:28:01.083Z,3.37
2022-12-04T03:29:01.068Z,3.28
2022-12-04T03:30:01.047Z,3.30
2022-12-04T03:31:01.059Z,3.23
2022-12-04T03:32:01.013Z,3.34
2022-12-04T03:33:00.995Z,3.34
2022-12-04T03:34:00.975Z,3.20
2022-12-04T03:35:00.960Z,3.28
2022-12-04T03:36:00.937Z,3.20
2022-12-04T03:37:01.045Z,3.25
2022-12-04T03:38:00.904Z,3.30
2022-12-04T03:39:00.888Z,3.28
2022-12-04T03:40:00.864Z,3.35
2022-12-04T03:41:00.848Z,3.26
2022-12-04T03:42:00.831Z,3.33
2022-12-04T03:43:00.811Z,3.39
2022-12-04T03:44:00.794Z,3.44
2022-12-04T03:45:00.777Z,3.35
2022-12-04T03:46:00.855Z,3.42
2022-12-04T03:47:00.738Z,3.39
2022-12-04T03:48:00.722Z,3.37
2022-12-04T03:49:00.701Z,3.35
2022-12-04T03:50:00.686Z,3.39
2022-12-04T03:51:00.668Z,3.39
2022-12-04T03:52:00.652Z,3.39
2022-12-04T03:53:00.651Z,3.46
2022-12-04T03:54:00.611Z,3.42
2022-12-04T03:55:00.593Z,3.46
2022-12-04T03:56:00.576Z,3.45
2022-12-04T03:57:00.553Z,3.53
2022-12-04T03:58:00.543Z,3.49
2022-12-04T03:59:00.518Z,3.44
2022-12-04T04:00:00.779Z,3.46
2022-12-04T04:01:00.549Z,3.44
2022-12-04T04:02:00.530Z,3.45
2022-12-04T04:03:00.534Z,3.49
2022-12-04T04:04:00.428Z,3.34
2022-12-04T04:05:00.410Z,3.35
2022-12-04T04:06:00.393Z,3.35
2022-12-04T04:07:00.371Z,3.39
2022-12-04T04:08:00.466Z,3.42
2022-12-04T04:09:00.360Z,3.39
2022-12-04T04:10:00.322Z,3.39
2022-12-04T04:11:00.299Z,3.37
2022-12-04T04:12:00.282Z,3.39
2022-12-04T04:13:00.262Z,3.37
2022-12-04T04:14:00.249Z,3.42
2022-12-04T04:15:00.235Z,3.49
2022-12-04T04:16:00.302Z,3.39
2022-12-04T04:17:00.188Z,3.50
2022-12-04T04:18:00.176Z,3.44
2022-12-04T04:19:00.153Z,3.39
2022-12-04T04:20:00.138Z,3.37
2022-12-04T04:21:00.118Z,3.35
2022-12-04T04:22:00.100Z,3.41
2022-12-04T04:23:00.080Z,3.49
2022-12-04T04:24:00.067Z,3.42
2022-12-04T04:25:00.093Z,3.49
2022-12-04T04:26:00.037Z,3.46
2022-12-04T04:27:00.009Z,3.52
2022-12-04T04:27:59.991Z,3.46
2022-12-04T04:28:59.970Z,3.45
2022-12-04T04:29:59.975Z,3.52
2022-12-04T04:31:00.016Z,3.49
2022-12-04T04:31:59.918Z,3.52
2022-12-04T04:32:59.899Z,3.45
2022-12-04T04:33:59.885Z,3.60
2022-12-04T04:34:59.862Z,3.57
2022-12-04T04:35:59.847Z,3.62
2022-12-04T04:36:59.832Z,3.64
2022-12-04T04:37:59.812Z,3.52
2022-12-04T04:38:59.790Z,3.52
2022-12-04T04:39:59.772Z,3.45
2022-12-04T04:40:59.783Z,3.46
2022-12-04T04:41:59.736Z,3.44
2022-12-04T04:42:59.723Z,3.45
2022-12-04T04:43:59.699Z,3.56
2022-12-04T04:44:59.678Z,3.46
2022-12-04T04:45:59.729Z,3.45
2022-12-04T04:46:59.642Z,3.45
2022-12-04T04:47:59.628Z,3.46
2022-12-04T04:48:59.606Z,3.46
2022-12-04T04:49:59.590Z,3.37
2022-12-04T04:50:59.569Z,3.39
2022-12-04T04:51:59.553Z,3.42
2022-12-04T04:52:59.533Z,3.39
2022-12-04T04:53:59.519Z,3.41
2022-12-04T04:54:59.496Z,3.52
2022-12-04T04:55:59.487Z,3.44
2022-12-04T04:56:59.481Z,3.46
2022-12-04T04:57:59.446Z,3.60
2022-12-04T04:58:59.473Z,3.57
2022-12-04T04:59:59.411Z,3.62
2022-12-04T05:00:59.388Z,3.57
2022-12-04T05:01:59.523Z,3.60
2022-12-04T05:02:59.405Z,3.60
2022-12-04T05:03:59.334Z,3.60
2022-12-04T05:04:59.314Z,3.59
2022-12-04T05:05:59.300Z,3.53
2022-12-04T05:06:59.280Z,3.42
2022-12-04T05:07:59.381Z,3.44
2022-12-04T05:08:59.242Z,3.44
2022-12-04T05:09:59.597Z,3.52
2022-12-04T05:10:59.205Z,3.60
2022-12-04T05:11:59.191Z,3.59
2022-12-04T05:12:59.202Z,3.63
2022-12-04T05:13:59.153Z,3.68
2022-12-04T05:14:59.134Z,3.59
2022-12-04T05:15:59.144Z,3.62
2022-12-04T05:17:01.960Z,3.54
2022-12-04T05:17:59.087Z,3.45
2022-12-04T05:18:59.066Z,3.46
2022-12-04T05:19:59.499Z,3.56
2022-12-04T05:20:59.032Z,3.52
2022-12-04T05:21:59.008Z,3.52
2022-12-04T05:22:58.987Z,3.56
2022-12-04T05:23:58.972Z,3.57
2022-12-04T05:24:58.951Z,3.49
2022-12-04T05:25:58.935Z,3.63
2022-12-04T05:26:58.921Z,3.54
2022-12-04T05:27:58.899Z,3.59
2022-12-04T05:28:58.902Z,3.60
2022-12-04T05:29:59.102Z,3.56
2022-12-04T05:30:58.900Z,3.74
2022-12-04T05:31:58.826Z,3.70
2022-12-04T05:32:58.806Z,3.72
2022-12-04T05:33:58.794Z,3.72
2022-12-04T05:34:58.769Z,3.71
2022-12-04T05:35:58.756Z,3.57
2022-12-04T05:36:58.733Z,3.49
2022-12-04T05:37:58.717Z,3.49
2022-12-04T05:38:58.696Z,3.46
2022-12-04T05:39:58.986Z,3.44
2022-12-04T05:40:58.660Z,3.49
2022-12-04T05:41:58.652Z,3.42
2022-12-04T05:42:58.624Z,3.35
2022-12-04T05:43:58.611Z,3.37
2022-12-04T05:44:58.611Z,3.35
2022-12-04T05:45:58.573Z,3.22
2022-12-04T05:46:58.621Z,3.22
2022-12-04T05:47:58.535Z,3.31
2022-12-04T05:48:58.514Z,3.25
2022-12-04T05:49:58.679Z,3.19
2022-12-04T05:50:58.494Z,3.20
2022-12-04T05:51:58.463Z,3.10
2022-12-04T05:52:58.444Z,3.23
2022-12-04T05:53:58.427Z,3.25
2022-12-04T05:54:58.407Z,3.26
2022-12-04T05:55:58.390Z,3.16
2022-12-04T05:56:58.370Z,3.23
2022-12-04T05:57:58.353Z,3.12
2022-12-04T05:58:58.332Z,3.26
2022-12-04T05:59:58.654Z,3.17
2022-12-04T06:00:58.318Z,3.26
2022-12-04T06:01:58.426Z,3.26
2022-12-04T06:02:58.313Z,3.31
2022-12-04T06:03:58.243Z,3.31
2022-12-04T06:04:58.224Z,3.35
2022-12-04T06:05:58.207Z,3.25
2022-12-04T06:06:58.185Z,3.41
2022-12-04T06:07:58.225Z,3.34
2022-12-04T06:08:58.148Z,3.31
2022-12-04T06:09:58.550Z,3.34
2022-12-04T06:10:58.112Z,3.30
2022-12-04T06:11:58.101Z,3.30
2022-12-04T06:12:58.077Z,3.22
2022-12-04T06:13:58.064Z,3.28
2022-12-04T06:14:58.039Z,3.28
2022-12-04T06:15:58.148Z,3.34
2022-12-04T06:16:58.106Z,3.33
2022-12-04T06:17:57.988Z,3.35
2022-12-04T06:18:57.966Z,3.34
2022-12-04T06:19:58.526Z,3.25
2022-12-04T06:20:58.002Z,3.28
2022-12-04T06:21:57.914Z,3.25
2022-12-04T06:22:57.893Z,3.26
2022-12-04T06:23:57.876Z,3.39
2022-12-04T06:24:57.856Z,3.34
2022-12-04T06:26:02.181Z,3.35
2022-12-04T06:27:25.762Z,3.37
2022-12-04T06:27:57.804Z,3.28
2022-12-04T06:28:57.783Z,3.39
2022-12-04T06:29:58.166Z,3.37
2022-12-04T06:30:57.747Z,3.23
2022-12-04T06:31:57.830Z,3.35
2022-12-04T06:32:57.732Z,3.22
2022-12-04T06:33:57.694Z,3.26
2022-12-04T06:34:57.677Z,3.23
2022-12-04T06:35:57.659Z,3.25
2022-12-04T06:36:57.635Z,3.25
2022-12-04T06:37:57.621Z,3.42
2022-12-04T06:38:57.600Z,3.28
2022-12-04T06:39:57.939Z,3.34
2022-12-04T06:40:57.565Z,3.26
2022-12-04T06:41:57.547Z,3.33
2022-12-04T06:43:57.511Z,3.44
2022-12-04T06:44:57.496Z,3.44
2022-12-04T06:45:57.538Z,3.52
2022-12-04T06:47:00.750Z,3.53
2022-12-04T06:47:57.435Z,3.52
2022-12-04T06:48:57.450Z,3.57
2022-12-04T06:49:57.798Z,3.62
2022-12-04T06:50:57.385Z,3.56
2022-12-04T06:51:57.363Z,3.62
2022-12-04T06:52:57.348Z,3.60
2022-12-04T06:53:57.327Z,3.62
2022-12-04T06:54:57.311Z,3.60
2022-12-04T06:55:57.289Z,3.60
2022-12-04T06:56:57.275Z,3.63
2022-12-04T06:57:57.255Z,3.60
2022-12-04T06:58:57.238Z,3.56
2022-12-04T06:59:57.498Z,3.60
2022-12-04T07:00:57.289Z,3.72
2022-12-04T07:01:57.203Z,3.74
2022-12-04T07:02:57.168Z,3.68
2022-12-04T07:03:57.145Z,3.74
2022-12-04T07:04:57.167Z,3.70
2022-12-04T07:05:57.110Z,3.71
2022-12-04T07:06:57.096Z,3.77
2022-12-04T07:07:57.167Z,3.74
2022-12-04T07:08:57.060Z,3.74
2022-12-04T07:09:57.307Z,3.72
2022-12-04T07:10:59.328Z,3.71
2022-12-04T07:11:56.999Z,3.67
2022-12-04T07:12:56.986Z,3.60
2022-12-04T07:13:56.963Z,3.60
2022-12-04T07:14:56.951Z,3.56
2022-12-04T07:15:56.927Z,3.49
2022-12-04T07:16:56.987Z,3.42
2022-12-04T07:17:56.892Z,3.44
2022-12-04T07:18:56.876Z,3.45
2022-12-04T07:19:57.098Z,3.37
2022-12-04T07:20:56.886Z,3.35
2022-12-04T07:21:56.818Z,3.37
2022-12-04T07:22:56.807Z,3.34
2022-12-04T07:23:56.782Z,3.37
2022-12-04T07:24:56.769Z,3.37
2022-12-04T07:25:56.746Z,3.35
2022-12-04T07:26:56.731Z,3.41
2022-12-04T07:27:56.708Z,3.37
2022-12-04T07:28:56.697Z,3.41
2022-12-04T07:29:56.930Z,3.46
2022-12-04T07:30:56.659Z,3.39
2022-12-04T07:31:56.758Z,3.33
2022-12-04T07:32:56.630Z,3.22
2022-12-04T07:33:56.606Z,3.41
2022-12-04T07:34:56.586Z,3.49
2022-12-04T07:35:56.573Z,3.56
2022-12-04T07:36:56.577Z,3.45
2022-12-04T07:37:56.531Z,3.53
2022-12-04T07:38:56.548Z,3.68
2022-12-04T07:39:56.810Z,3.56
2022-12-04T07:40:56.486Z,3.53
2022-12-04T07:41:56.459Z,3.52
2022-12-04T07:42:56.442Z,3.70
2022-12-04T07:43:56.428Z,3.68
2022-12-04T07:44:56.415Z,3.64
2022-12-04T07:45:56.516Z,3.57
2022-12-04T07:46:56.366Z,3.50
2022-12-04T07:47:56.361Z,3.57
2022-12-04T07:48:56.330Z,3.60
2022-12-04T07:49:56.552Z,3.53
2022-12-04T07:50:56.294Z,3.56
2022-12-04T07:51:56.273Z,3.71
2022-12-04T07:52:56.282Z,3.71
2022-12-04T07:53:56.237Z,3.75
2022-12-04T07:54:56.222Z,3.81
2022-12-04T07:55:56.199Z,3.81
2022-12-04T07:56:56.285Z,3.78
2022-12-04T07:57:56.167Z,3.77
2022-12-04T07:58:56.146Z,3.74
2022-12-04T07:59:56.379Z,3.57
2022-12-04T08:00:56.187Z,3.68
2022-12-04T08:01:56.195Z,3.57
2022-12-04T08:02:56.076Z,3.63
2022-12-04T08:03:56.058Z,3.63
2022-12-04T08:04:56.150Z,3.63
2022-12-04T08:05:56.024Z,3.60
2022-12-04T08:06:56.001Z,3.49
2022-12-04T08:07:56.008Z,3.59
2022-12-04T08:08:55.990Z,3.46
2022-12-04T08:09:56.273Z,3.57
2022-12-04T08:10:55.929Z,3.52
2022-12-04T08:11:55.913Z,3.42
2022-12-04T08:12:55.891Z,3.41
2022-12-04T08:13:55.877Z,3.35
2022-12-04T08:14:55.856Z,3.46
2022-12-04T08:15:55.839Z,3.35
2022-12-04T08:16:55.875Z,3.39
2022-12-04T08:17:55.804Z,3.35
2022-12-04T08:18:55.783Z,3.26
2022-12-04T08:19:56.026Z,3.23
2022-12-04T08:20:55.747Z,3.23
2022-12-04T08:21:55.732Z,3.20
2022-12-04T08:22:55.711Z,3.17
2022-12-04T08:23:55.694Z,3.26
2022-12-04T08:24:55.697Z,3.08
2022-12-04T08:25:55.660Z,3.19
2022-12-04T08:26:55.637Z,3.25
2022-12-04T08:27:55.725Z,3.26
2022-12-04T08:28:55.603Z,3.39
2022-12-04T08:29:55.803Z,3.33
2022-12-04T08:30:55.637Z,3.37
2022-12-04T08:31:55.550Z,3.22
2022-12-04T08:32:55.527Z,3.26
2022-12-04T08:33:55.520Z,3.25
2022-12-04T08:34:56.114Z,3.35
2022-12-04T08:35:55.478Z,3.35
2022-12-04T08:36:55.454Z,3.42
2022-12-04T08:37:55.438Z,3.35
2022-12-04T08:38:55.421Z,3.39
2022-12-04T08:39:55.614Z,3.35
2022-12-04T08:40:55.404Z,3.39
2022-12-04T08:41:57.144Z,3.34
2022-12-04T08:42:55.345Z,3.44
2022-12-04T08:43:55.329Z,3.46
2022-12-04T08:44:55.309Z,3.41
2022-12-04T08:45:55.360Z,3.45
2022-12-04T08:46:55.274Z,3.45
2022-12-04T08:47:55.256Z,3.45
2022-12-04T08:48:55.235Z,3.42
2022-12-04T08:49:55.499Z,3.46
2022-12-04T08:50:55.198Z,3.42
2022-12-04T08:51:55.185Z,3.37
2022-12-04T08:52:55.161Z,3.39
2022-12-04T08:53:55.146Z,3.39
2022-12-04T08:54:55.126Z,3.49
2022-12-04T08:55:55.109Z,3.46
2022-12-04T08:56:55.110Z,3.50
2022-12-04T08:57:55.074Z,3.41
2022-12-04T08:58:55.055Z,3.39
2022-12-04T08:59:55.332Z,3.37
2022-12-04T09:00:55.018Z,3.41
2022-12-04T09:01:55.144Z,3.35
2022-12-04T09:02:54.980Z,3.42
2022-12-04T09:03:55.048Z,3.46
2022-12-04T09:04:54.988Z,3.37
2022-12-04T09:05:54.929Z,3.41
2022-12-04T09:06:54.907Z,3.37
2022-12-04T09:07:54.924Z,3.42
2022-12-04T09:08:54.889Z,3.35
2022-12-04T09:09:54.855Z,3.44
2022-12-04T09:10:54.834Z,3.42
2022-12-04T09:11:54.819Z,3.46
2022-12-04T09:12:54.820Z,3.41
2022-12-04T09:13:54.783Z,3.44
2022-12-04T09:14:54.761Z,3.41
2022-12-04T09:15:54.829Z,3.46
2022-12-04T09:16:54.724Z,3.54
2022-12-04T09:17:54.709Z,3.60
2022-12-04T09:18:54.688Z,3.68
2022-12-04T09:20:00.528Z,3.71
2022-12-04T09:20:54.652Z,3.57
2022-12-04T09:21:54.637Z,3.62
2022-12-04T09:23:03.847Z,3.45
2022-12-04T09:23:54.599Z,3.57
2022-12-04T09:24:54.580Z,3.54
2022-12-04T09:25:54.564Z,3.59
2022-12-04T09:26:54.543Z,3.59
2022-12-04T09:27:54.531Z,3.60
2022-12-04T09:28:54.531Z,3.63
2022-12-04T09:29:54.839Z,3.71
2022-12-04T09:30:54.588Z,3.68
2022-12-04T09:31:54.455Z,3.78
2022-12-04T09:32:54.434Z,3.68
2022-12-04T09:33:54.427Z,3.62
2022-12-04T09:34:54.398Z,3.68
2022-12-04T09:35:54.381Z,3.70
2022-12-04T09:36:54.367Z,3.71
2022-12-04T09:37:54.346Z,3.60
2022-12-04T09:38:54.324Z,3.70
2022-12-04T09:39:54.713Z,3.80
2022-12-04T09:40:54.292Z,3.78
2022-12-04T09:41:54.274Z,3.78
2022-12-04T09:42:54.254Z,3.71
2022-12-04T09:43:54.238Z,3.67
2022-12-04T09:44:54.239Z,3.74
2022-12-04T09:45:54.272Z,3.72
2022-12-04T09:46:54.299Z,3.77
2022-12-04T09:47:54.166Z,3.89
2022-12-04T09:48:54.147Z,3.90
2022-12-04T09:49:54.539Z,3.84
2022-12-04T09:50:54.110Z,3.84
2022-12-04T09:51:54.092Z,3.84
2022-12-04T09:52:54.071Z,3.82
2022-12-04T09:53:54.060Z,3.75
2022-12-04T09:54:54.043Z,3.78
2022-12-04T09:55:54.019Z,3.78
2022-12-04T09:56:54.003Z,3.84
2022-12-04T09:57:58.458Z,3.86
2022-12-04T09:58:53.964Z,3.84
2022-12-04T09:59:54.357Z,3.80
2022-12-04T10:00:53.950Z,3.78
2022-12-04T10:01:53.913Z,3.84
2022-12-04T10:02:54.044Z,3.95
2022-12-04T10:03:54.107Z,3.92
2022-12-04T10:04:53.856Z,4.00
2022-12-04T10:05:53.841Z,3.96
2022-12-04T10:06:53.823Z,3.80
2022-12-04T10:07:53.833Z,3.82
2022-12-04T10:08:53.787Z,3.75
2022-12-04T10:09:54.130Z,3.70
2022-12-04T10:10:53.751Z,3.72
2022-12-04T10:11:53.733Z,3.80
2022-12-04T10:12:53.711Z,3.77
2022-12-04T10:13:53.698Z,3.72
2022-12-04T10:14:53.676Z,3.72
2022-12-04T10:15:53.784Z,3.71
2022-12-04T10:16:53.666Z,3.88
2022-12-04T10:17:53.628Z,3.84
2022-12-04T10:18:53.605Z,4.06
2022-12-04T10:19:54.065Z,3.95
2022-12-04T10:20:53.567Z,3.98
2022-12-04T10:21:53.553Z,4.02
2022-12-04T10:22:53.533Z,4.11
2022-12-04T10:23:53.523Z,4.14
2022-12-04T10:24:53.500Z,4.25
2022-12-04T10:25:53.482Z,4.25
2022-12-04T10:26:53.461Z,4.14
2022-12-04T10:27:53.449Z,4.17
2022-12-04T10:28:55.490Z,4.16
2022-12-04T10:29:53.659Z,4.28
2022-12-04T10:30:53.475Z,4.35
2022-12-04T10:31:53.374Z,4.32
2022-12-04T10:32:53.375Z,4.38
2022-12-04T10:33:53.339Z,4.31
2022-12-04T10:34:53.319Z,4.34
2022-12-04T10:35:53.304Z,4.38
2022-12-04T10:36:53.282Z,4.28
2022-12-04T10:37:53.267Z,4.36
2022-12-04T10:38:53.249Z,4.34
2022-12-04T10:39:53.741Z,4.26
2022-12-04T10:40:53.211Z,4.31
2022-12-04T10:41:53.197Z,4.35
2022-12-04T10:42:53.178Z,4.35
2022-12-04T10:43:53.163Z,4.34
2022-12-04T10:44:53.142Z,4.51
2022-12-04T10:45:53.125Z,4.53
2022-12-04T10:46:53.144Z,4.57
2022-12-04T10:47:53.092Z,4.53
2022-12-04T10:48:53.094Z,4.53
2022-12-04T10:49:53.342Z,4.67
2022-12-04T10:50:53.036Z,4.62
2022-12-04T10:51:53.019Z,4.57
2022-12-04T10:52:53.000Z,4.57
2022-12-04T10:53:52.986Z,4.51
2022-12-04T10:54:52.964Z,4.54
2022-12-04T10:55:52.951Z,4.49
2022-12-04T10:56:52.933Z,4.64
2022-12-04T10:57:52.914Z,4.61
2022-12-04T10:58:52.894Z,4.61
2022-12-04T10:59:53.170Z,4.62
2022-12-04T11:00:52.859Z,4.65
2022-12-04T11:01:52.925Z,4.54
2022-12-04T11:02:52.842Z,4.59
2022-12-04T11:03:52.811Z,4.59
2022-12-04T11:04:52.810Z,4.62
2022-12-04T11:05:52.775Z,4.64
2022-12-04T11:06:52.753Z,4.64
2022-12-04T11:07:52.914Z,4.59
2022-12-04T11:08:52.922Z,4.62
2022-12-04T11:09:52.708Z,4.71
2022-12-04T11:10:52.684Z,4.71
2022-12-04T11:11:52.675Z,4.72
2022-12-04T11:12:52.650Z,4.71
2022-12-04T11:13:52.636Z,4.72
2022-12-04T11:14:52.615Z,4.64
2022-12-04T11:15:52.643Z,4.67
2022-12-04T11:16:52.581Z,4.64
2022-12-04T11:17:52.566Z,4.69
2022-12-04T11:18:52.546Z,4.75
2022-12-04T11:19:52.532Z,4.71
2022-12-04T11:20:52.535Z,4.65
2022-12-04T11:21:52.511Z,4.71
2022-12-04T11:22:52.478Z,4.79
2022-12-04T11:23:52.462Z,4.74
2022-12-04T11:24:52.441Z,4.84
2022-12-04T11:25:52.426Z,4.79
2022-12-04T11:26:52.408Z,4.83
2022-12-04T11:27:52.391Z,4.71
2022-12-04T11:28:52.371Z,4.79
2022-12-04T11:29:52.360Z,4.83
2022-12-04T11:30:52.338Z,5.01
2022-12-04T11:31:52.426Z,5.06
2022-12-04T11:32:52.304Z,5.02
2022-12-04T11:33:52.289Z,5.06
2022-12-04T11:34:52.270Z,5.17
2022-12-04T11:35:52.255Z,5.19
2022-12-04T11:36:52.256Z,5.05
2022-12-04T11:37:52.221Z,5.09
2022-12-04T11:38:52.219Z,5.05
2022-12-04T11:39:52.187Z,5.09
2022-12-04T11:40:52.172Z,4.93
2022-12-04T11:41:52.151Z,5.01
2022-12-04T11:42:52.132Z,4.90
2022-12-04T11:43:55.375Z,4.90
2022-12-04T11:44:52.097Z,4.83
2022-12-04T11:45:52.082Z,4.77
2022-12-04T11:46:52.170Z,4.74
2022-12-04T11:47:52.048Z,4.67
2022-12-04T11:48:52.030Z,4.77
2022-12-04T11:49:52.013Z,4.72
2022-12-04T11:50:51.994Z,4.62
2022-12-04T11:51:51.981Z,4.62
2022-12-04T11:52:51.988Z,4.71
2022-12-04T11:53:51.945Z,4.84
2022-12-04T11:54:51.926Z,4.90
2022-12-04T11:55:51.914Z,4.94
2022-12-04T11:56:51.890Z,4.96
2022-12-04T11:57:51.877Z,4.96
2022-12-04T11:58:51.857Z,4.87
2022-12-04T11:59:51.841Z,4.97
2022-12-04T12:00:51.871Z,5.09
2022-12-04T12:01:57.747Z,5.24
2022-12-04T12:02:51.890Z,5.35
2022-12-04T12:03:51.774Z,5.40
2022-12-04T12:04:51.756Z,5.35
2022-12-04T12:05:51.741Z,5.24
2022-12-04T12:06:51.720Z,5.20
2022-12-04T12:07:51.770Z,5.20
2022-12-04T12:08:51.710Z,5.20
2022-12-04T12:09:51.671Z,5.22
2022-12-04T12:10:51.651Z,5.19
2022-12-04T12:11:51.637Z,5.09
2022-12-04T12:12:51.619Z,5.05
2022-12-04T12:13:51.600Z,5.08
2022-12-04T12:14:51.588Z,5.09
2022-12-04T12:15:51.565Z,5.05
2022-12-04T12:16:51.793Z,5.08
2022-12-04T12:17:51.532Z,5.08
2022-12-04T12:18:51.519Z,5.06
2022-12-04T12:19:51.497Z,5.05
2022-12-04T12:20:51.483Z,4.99
2022-12-04T12:21:51.464Z,5.01
2022-12-04T12:22:51.450Z,5.01
2022-12-04T12:23:51.432Z,5.01
2022-12-04T12:24:51.616Z,5.02
2022-12-04T12:25:52.511Z,5.01
2022-12-04T12:26:51.383Z,5.01
2022-12-04T12:27:51.363Z,5.05
2022-12-04T12:28:51.348Z,5.08
2022-12-04T12:29:51.335Z,5.01
2022-12-04T12:30:51.315Z,5.05
2022-12-04T12:31:51.344Z,5.12
2022-12-04T12:32:51.280Z,5.17
2022-12-04T12:33:51.260Z,5.12
2022-12-04T12:34:51.246Z,5.11
2022-12-04T12:35:51.226Z,5.14
2022-12-04T12:36:52.609Z,5.08
2022-12-04T12:37:51.194Z,5.11
2022-12-04T12:38:51.184Z,5.33
2022-12-04T12:39:51.158Z,5.30
2022-12-04T12:40:51.167Z,5.32
2022-12-04T12:41:51.126Z,5.23
2022-12-04T12:42:56.563Z,5.23
2022-12-04T12:43:51.091Z,5.35
2022-12-04T12:44:51.077Z,5.32
2022-12-04T12:45:51.148Z,5.22
2022-12-04T12:46:51.043Z,5.35
2022-12-04T12:47:51.023Z,5.44
2022-12-04T12:48:56.622Z,5.35
2022-12-04T12:49:50.990Z,5.33
2022-12-04T12:51:08.978Z,5.45
2022-12-04T12:51:50.955Z,5.38
2022-12-04T12:52:50.943Z,5.27
2022-12-04T12:53:50.923Z,5.30
2022-12-04T12:54:50.908Z,5.37
2022-12-04T12:55:50.889Z,5.38
2022-12-04T12:56:50.918Z,5.37
2022-12-04T12:57:50.855Z,5.40
2022-12-04T12:58:50.842Z,5.24
2022-12-04T12:59:50.821Z,5.17
2022-12-04T13:00:50.859Z,5.24
2022-12-04T13:01:52.823Z,5.17
2022-12-04T13:02:50.833Z,5.22
2022-12-04T13:03:50.755Z,5.20
2022-12-04T13:04:50.739Z,5.19
2022-12-04T13:05:50.725Z,5.19
2022-12-04T13:06:50.708Z,5.20
2022-12-04T13:07:50.801Z,5.26
2022-12-04T13:08:50.672Z,5.29
2022-12-04T13:09:50.654Z,5.17
2022-12-04T13:10:50.639Z,5.14
2022-12-04T13:11:50.620Z,5.20
2022-12-04T13:12:50.630Z,5.02
2022-12-04T13:13:51.470Z,5.14
2022-12-04T13:14:50.572Z,5.06
2022-12-04T13:15:50.551Z,5.20
2022-12-04T13:17:50.521Z,5.40
2022-12-04T13:18:50.504Z,5.44
2022-12-04T13:19:50.486Z,5.55
2022-12-04T13:20:50.469Z,5.58
2022-12-04T13:21:50.453Z,5.56